sensor_id;sensor_type;location;lat;lon;timestamp;P1;durP1;ratioP1;P2;durP2;ratioP2
25615;SDS011;13482;48.234;13.006;2022-09-01T00:02:29;5.63;;;4.55;;
25615;SDS011;13482;48.234;13.006;2022-09-01T00:04:57;6.07;;;5.05;;
25615;SDS011;13482;48.234;13.006;2022-09-01T00:07:28;5.38;;;4.65;;
25615;SDS011;13482;48.234;13.006;2022-09-01T00:12:25;4.72;;;3.95;;
25615;SDS011;13482;48.234;13.006;2022-09-01T00:14:53;5.00;;;3.83;;
25615;SDS011;13482;48.234;13.006;2022-09-01T00:17:20;3.83;;;3.30;;
25615;SDS011;13482;48.234;13.006;2022-09-01T00:19:48;4.55;;;3.53;;
25615;SDS011;13482;48.234;13.006;2022-09-01T00:22:15;4.97;;;3.28;;
25615;SDS011;13482;48.234;13.006;2022-09-01T00:24:42;3.92;;;3.38;;
25615;SDS011;13482;48.234;13.006;2022-09-01T00:27:10;3.67;;;3.35;;
25615;SDS011;13482;48.234;13.006;2022-09-01T00:29:38;3.58;;;3.03;;
25615;SDS011;13482;48.234;13.006;2022-09-01T00:32:09;3.77;;;3.07;;
25615;SDS011;13482;48.234;13.006;2022-09-01T00:34:37;4.43;;;3.28;;
25615;SDS011;13482;48.234;13.006;2022-09-01T00:37:05;3.17;;;2.70;;
25615;SDS011;13482;48.234;13.006;2022-09-01T00:39:32;5.15;;;3.78;;
25615;SDS011;13482;48.234;13.006;2022-09-01T00:42:00;4.03;;;3.20;;
25615;SDS011;13482;48.234;13.006;2022-09-01T00:44:27;3.85;;;3.42;;
25615;SDS011;13482;48.234;13.006;2022-09-01T00:46:57;5.22;;;4.05;;
25615;SDS011;13482;48.234;13.006;2022-09-01T00:49:47;4.70;;;4.10;;
25615;SDS011;13482;48.234;13.006;2022-09-01T00:52:20;3.90;;;3.50;;
25615;SDS011;13482;48.234;13.006;2022-09-01T00:54:56;3.95;;;3.42;;
25615;SDS011;13482;48.234;13.006;2022-09-01T00:57:30;3.97;;;3.55;;
25615;SDS011;13482;48.234;13.006;2022-09-01T01:02:48;4.45;;;3.63;;
25615;SDS011;13482;48.234;13.006;2022-09-01T01:05:22;4.22;;;3.78;;
25615;SDS011;13482;48.234;13.006;2022-09-01T01:07:53;4.43;;;3.40;;
25615;SDS011;13482;48.234;13.006;2022-09-01T01:10:21;4.45;;;3.90;;
25615;SDS011;13482;48.234;13.006;2022-09-01T01:12:50;4.35;;;3.45;;
25615;SDS011;13482;48.234;13.006;2022-09-01T01:15:19;3.42;;;3.13;;
25615;SDS011;13482;48.234;13.006;2022-09-01T01:17:46;3.92;;;3.53;;
25615;SDS011;13482;48.234;13.006;2022-09-01T01:20:14;4.03;;;3.63;;
25615;SDS011;13482;48.234;13.006;2022-09-01T01:23:09;3.80;;;3.40;;
25615;SDS011;13482;48.234;13.006;2022-09-01T01:26:03;4.93;;;3.30;;
25615;SDS011;13482;48.234;13.006;2022-09-01T01:28:34;3.25;;;2.70;;
25615;SDS011;13482;48.234;13.006;2022-09-01T01:31:06;3.90;;;2.95;;
25615;SDS011;13482;48.234;13.006;2022-09-01T01:33:41;4.10;;;3.38;;
25615;SDS011;13482;48.234;13.006;2022-09-01T01:36:16;4.72;;;3.33;;
25615;SDS011;13482;48.234;13.006;2022-09-01T01:38:58;3.47;;;3.03;;
25615;SDS011;13482;48.234;13.006;2022-09-01T01:41:30;3.45;;;2.80;;
25615;SDS011;13482;48.234;13.006;2022-09-01T01:43:59;2.78;;;2.45;;
25615;SDS011;13482;48.234;13.006;2022-09-01T01:46:31;3.90;;;3.38;;
25615;SDS011;13482;48.234;13.006;2022-09-01T01:49:01;3.47;;;3.17;;
25615;SDS011;13482;48.234;13.006;2022-09-01T01:51:29;3.60;;;3.00;;
25615;SDS011;13482;48.234;13.006;2022-09-01T01:53:58;3.63;;;3.10;;
25615;SDS011;13482;48.234;13.006;2022-09-01T01:56:31;4.05;;;3.13;;
25615;SDS011;13482;48.234;13.006;2022-09-01T01:59:05;4.38;;;3.60;;
25615;SDS011;13482;48.234;13.006;2022-09-01T02:01:33;3.40;;;2.90;;
25615;SDS011;13482;48.234;13.006;2022-09-01T02:04:01;3.50;;;3.08;;
25615;SDS011;13482;48.234;13.006;2022-09-01T02:06:31;4.20;;;3.45;;
25615;SDS011;13482;48.234;13.006;2022-09-01T02:09:00;4.15;;;3.58;;
25615;SDS011;13482;48.234;13.006;2022-09-01T02:11:29;3.60;;;3.20;;
25615;SDS011;13482;48.234;13.006;2022-09-01T02:13:59;2.95;;;2.60;;
25615;SDS011;13482;48.234;13.006;2022-09-01T02:16:28;3.13;;;2.67;;
25615;SDS011;13482;48.234;13.006;2022-09-01T02:18:59;3.55;;;2.95;;
25615;SDS011;13482;48.234;13.006;2022-09-01T02:21:27;3.67;;;3.28;;
25615;SDS011;13482;48.234;13.006;2022-09-01T02:23:56;3.10;;;2.60;;
25615;SDS011;13482;48.234;13.006;2022-09-01T02:26:35;3.10;;;2.72;;
25615;SDS011;13482;48.234;13.006;2022-09-01T02:29:14;3.15;;;2.72;;
25615;SDS011;13482;48.234;13.006;2022-09-01T02:31:49;3.60;;;2.78;;
25615;SDS011;13482;48.234;13.006;2022-09-01T02:34:18;3.63;;;2.70;;
25615;SDS011;13482;48.234;13.006;2022-09-01T02:36:50;3.42;;;2.42;;
25615;SDS011;13482;48.234;13.006;2022-09-01T02:39:29;3.22;;;2.53;;
25615;SDS011;13482;48.234;13.006;2022-09-01T02:42:00;3.45;;;2.97;;
25615;SDS011;13482;48.234;13.006;2022-09-01T02:44:28;4.00;;;3.17;;
25615;SDS011;13482;48.234;13.006;2022-09-01T02:46:56;4.03;;;3.30;;
25615;SDS011;13482;48.234;13.006;2022-09-01T02:49:24;3.97;;;3.50;;
25615;SDS011;13482;48.234;13.006;2022-09-01T02:51:56;5.70;;;3.50;;
25615;SDS011;13482;48.234;13.006;2022-09-01T02:54:27;4.75;;;3.70;;
25615;SDS011;13482;48.234;13.006;2022-09-01T02:56:58;6.20;;;4.15;;
25615;SDS011;13482;48.234;13.006;2022-09-01T02:59:27;4.72;;;4.18;;
25615;SDS011;13482;48.234;13.006;2022-09-01T03:01:56;4.40;;;3.90;;
25615;SDS011;13482;48.234;13.006;2022-09-01T03:04:23;5.03;;;4.00;;
25615;SDS011;13482;48.234;13.006;2022-09-01T03:06:52;4.70;;;4.15;;
25615;SDS011;13482;48.234;13.006;2022-09-01T03:09:24;3.67;;;3.05;;
25615;SDS011;13482;48.234;13.006;2022-09-01T03:11:52;4.22;;;3.75;;
25615;SDS011;13482;48.234;13.006;2022-09-01T03:14:20;5.88;;;3.72;;
25615;SDS011;13482;48.234;13.006;2022-09-01T03:16:49;4.82;;;4.15;;
25615;SDS011;13482;48.234;13.006;2022-09-01T03:19:17;5.93;;;4.40;;
25615;SDS011;13482;48.234;13.006;2022-09-01T03:21:45;5.65;;;4.45;;
25615;SDS011;13482;48.234;13.006;2022-09-01T03:24:13;5.32;;;4.40;;
25615;SDS011;13482;48.234;13.006;2022-09-01T03:29:15;3.03;;;2.38;;
25615;SDS011;13482;48.234;13.006;2022-09-01T03:31:44;3.90;;;3.28;;
25615;SDS011;13482;48.234;13.006;2022-09-01T03:34:11;3.92;;;3.20;;
25615;SDS011;13482;48.234;13.006;2022-09-01T03:36:39;3.72;;;2.63;;
25615;SDS011;13482;48.234;13.006;2022-09-01T03:39:16;3.53;;;3.05;;
25615;SDS011;13482;48.234;13.006;2022-09-01T03:41:44;3.28;;;2.65;;
25615;SDS011;13482;48.234;13.006;2022-09-01T03:44:12;3.72;;;2.90;;
25615;SDS011;13482;48.234;13.006;2022-09-01T03:46:41;3.00;;;2.70;;
25615;SDS011;13482;48.234;13.006;2022-09-01T03:49:10;4.35;;;3.95;;
25615;SDS011;13482;48.234;13.006;2022-09-01T03:51:41;4.20;;;3.40;;
25615;SDS011;13482;48.234;13.006;2022-09-01T03:54:10;5.03;;;4.40;;
25615;SDS011;13482;48.234;13.006;2022-09-01T03:56:38;7.60;;;5.63;;
25615;SDS011;13482;48.234;13.006;2022-09-01T03:59:07;7.35;;;6.28;;
25615;SDS011;13482;48.234;13.006;2022-09-01T04:01:42;5.43;;;4.85;;
25615;SDS011;13482;48.234;13.006;2022-09-01T04:04:11;6.78;;;6.07;;
25615;SDS011;13482;48.234;13.006;2022-09-01T04:06:41;7.78;;;6.97;;
25615;SDS011;13482;48.234;13.006;2022-09-01T04:09:09;8.52;;;6.43;;
25615;SDS011;13482;48.234;13.006;2022-09-01T04:11:38;8.05;;;6.63;;
25615;SDS011;13482;48.234;13.006;2022-09-01T04:14:11;10.23;;;7.78;;
25615;SDS011;13482;48.234;13.006;2022-09-01T04:16:39;7.57;;;6.70;;
25615;SDS011;13482;48.234;13.006;2022-09-01T04:19:25;9.13;;;7.75;;
25615;SDS011;13482;48.234;13.006;2022-09-01T04:21:56;8.80;;;7.55;;
25615;SDS011;13482;48.234;13.006;2022-09-01T04:24:26;8.95;;;8.05;;
25615;SDS011;13482;48.234;13.006;2022-09-01T04:26:58;9.38;;;7.70;;
25615;SDS011;13482;48.234;13.006;2022-09-01T04:29:27;7.57;;;6.80;;
25615;SDS011;13482;48.234;13.006;2022-09-01T04:32:01;7.13;;;6.40;;
25615;SDS011;13482;48.234;13.006;2022-09-01T04:34:33;6.13;;;5.53;;
25615;SDS011;13482;48.234;13.006;2022-09-01T04:37:13;6.80;;;5.72;;
25615;SDS011;13482;48.234;13.006;2022-09-01T04:39:51;5.78;;;5.18;;
25615;SDS011;13482;48.234;13.006;2022-09-01T04:42:23;6.85;;;5.88;;
25615;SDS011;13482;48.234;13.006;2022-09-01T04:44:55;6.55;;;5.65;;
25615;SDS011;13482;48.234;13.006;2022-09-01T04:47:23;6.75;;;6.05;;
25615;SDS011;13482;48.234;13.006;2022-09-01T04:50:02;6.97;;;5.85;;
25615;SDS011;13482;48.234;13.006;2022-09-01T04:52:40;7.13;;;5.88;;
25615;SDS011;13482;48.234;13.006;2022-09-01T04:55:11;7.50;;;5.93;;
25615;SDS011;13482;48.234;13.006;2022-09-01T04:57:44;7.22;;;6.15;;
25615;SDS011;13482;48.234;13.006;2022-09-01T05:00:14;7.50;;;6.20;;
25615;SDS011;13482;48.234;13.006;2022-09-01T05:02:56;10.68;;;7.13;;
25615;SDS011;13482;48.234;13.006;2022-09-01T05:08:09;6.95;;;6.22;;
25615;SDS011;13482;48.234;13.006;2022-09-01T05:10:50;7.03;;;6.00;;
25615;SDS011;13482;48.234;13.006;2022-09-01T05:13:21;7.70;;;6.40;;
25615;SDS011;13482;48.234;13.006;2022-09-01T05:15:58;7.95;;;6.35;;
25615;SDS011;13482;48.234;13.006;2022-09-01T05:18:29;7.82;;;6.00;;
25615;SDS011;13482;48.234;13.006;2022-09-01T05:20:57;7.68;;;5.97;;
25615;SDS011;13482;48.234;13.006;2022-09-01T05:23:24;6.90;;;6.20;;
25615;SDS011;13482;48.234;13.006;2022-09-01T05:25:52;10.50;;;6.75;;
25615;SDS011;13482;48.234;13.006;2022-09-01T05:28:22;8.63;;;6.85;;
25615;SDS011;13482;48.234;13.006;2022-09-01T05:30:50;7.70;;;6.72;;
25615;SDS011;13482;48.234;13.006;2022-09-01T05:33:19;8.07;;;6.13;;
25615;SDS011;13482;48.234;13.006;2022-09-01T05:35:56;7.30;;;6.20;;
25615;SDS011;13482;48.234;13.006;2022-09-01T05:38:28;7.28;;;6.40;;
25615;SDS011;13482;48.234;13.006;2022-09-01T05:40:57;6.97;;;6.05;;
25615;SDS011;13482;48.234;13.006;2022-09-01T05:43:29;8.00;;;6.22;;
25615;SDS011;13482;48.234;13.006;2022-09-01T05:45:58;7.68;;;6.43;;
25615;SDS011;13482;48.234;13.006;2022-09-01T05:48:32;6.32;;;5.68;;
25615;SDS011;13482;48.234;13.006;2022-09-01T05:51:06;8.10;;;5.88;;
25615;SDS011;13482;48.234;13.006;2022-09-01T05:53:55;7.93;;;5.93;;
25615;SDS011;13482;48.234;13.006;2022-09-01T05:56:25;7.25;;;6.28;;
25615;SDS011;13482;48.234;13.006;2022-09-01T05:58:54;6.95;;;6.10;;
25615;SDS011;13482;48.234;13.006;2022-09-01T06:01:45;7.75;;;5.60;;
25615;SDS011;13482;48.234;13.006;2022-09-01T06:04:16;7.32;;;6.38;;
25615;SDS011;13482;48.234;13.006;2022-09-01T06:06:45;6.50;;;5.80;;
25615;SDS011;13482;48.234;13.006;2022-09-01T06:09:35;7.20;;;5.28;;
25615;SDS011;13482;48.234;13.006;2022-09-01T06:12:09;8.27;;;6.07;;
25615;SDS011;13482;48.234;13.006;2022-09-01T06:14:44;7.43;;;6.07;;
25615;SDS011;13482;48.234;13.006;2022-09-01T06:17:13;6.60;;;5.57;;
25615;SDS011;13482;48.234;13.006;2022-09-01T06:19:52;5.60;;;4.80;;
25615;SDS011;13482;48.234;13.006;2022-09-01T06:22:22;5.57;;;4.78;;
25615;SDS011;13482;48.234;13.006;2022-09-01T06:24:51;5.45;;;4.78;;
25615;SDS011;13482;48.234;13.006;2022-09-01T06:27:26;5.20;;;4.70;;
25615;SDS011;13482;48.234;13.006;2022-09-01T06:29:54;4.88;;;4.35;;
25615;SDS011;13482;48.234;13.006;2022-09-01T06:32:23;5.00;;;4.50;;
25615;SDS011;13482;48.234;13.006;2022-09-01T06:34:52;5.80;;;4.70;;
25615;SDS011;13482;48.234;13.006;2022-09-01T06:37:23;4.72;;;4.15;;
25615;SDS011;13482;48.234;13.006;2022-09-01T06:39:50;4.70;;;3.97;;
25615;SDS011;13482;48.234;13.006;2022-09-01T06:42:18;4.70;;;4.20;;
25615;SDS011;13482;48.234;13.006;2022-09-01T06:44:45;4.63;;;4.13;;
25615;SDS011;13482;48.234;13.006;2022-09-01T06:47:12;4.57;;;4.10;;
25615;SDS011;13482;48.234;13.006;2022-09-01T06:49:40;4.20;;;3.80;;
25615;SDS011;13482;48.234;13.006;2022-09-01T06:52:08;5.13;;;3.97;;
25615;SDS011;13482;48.234;13.006;2022-09-01T06:54:39;4.22;;;3.83;;
25615;SDS011;13482;48.234;13.006;2022-09-01T06:57:09;4.18;;;3.72;;
25615;SDS011;13482;48.234;13.006;2022-09-01T06:59:56;3.80;;;3.40;;
25615;SDS011;13482;48.234;13.006;2022-09-01T07:02:23;3.97;;;3.58;;
25615;SDS011;13482;48.234;13.006;2022-09-01T07:04:52;5.15;;;4.25;;
25615;SDS011;13482;48.234;13.006;2022-09-01T07:07:20;4.18;;;3.65;;
25615;SDS011;13482;48.234;13.006;2022-09-01T07:10:07;3.60;;;2.88;;
25615;SDS011;13482;48.234;13.006;2022-09-01T07:12:52;3.05;;;2.75;;
25615;SDS011;13482;48.234;13.006;2022-09-01T07:15:32;3.70;;;3.00;;
25615;SDS011;13482;48.234;13.006;2022-09-01T07:18:27;3.70;;;2.63;;
25615;SDS011;13482;48.234;13.006;2022-09-01T07:20:56;3.47;;;2.78;;
25615;SDS011;13482;48.234;13.006;2022-09-01T07:23:34;2.92;;;2.55;;
25615;SDS011;13482;48.234;13.006;2022-09-01T07:26:22;2.65;;;2.45;;
25615;SDS011;13482;48.234;13.006;2022-09-01T07:28:52;4.65;;;2.72;;
25615;SDS011;13482;48.234;13.006;2022-09-01T07:31:28;2.50;;;2.30;;
25615;SDS011;13482;48.234;13.006;2022-09-01T07:34:16;2.17;;;1.85;;
25615;SDS011;13482;48.234;13.006;2022-09-01T07:37:03;2.63;;;2.05;;
25615;SDS011;13482;48.234;13.006;2022-09-01T07:39:50;2.40;;;2.03;;
25615;SDS011;13482;48.234;13.006;2022-09-01T07:42:21;2.70;;;2.00;;
25615;SDS011;13482;48.234;13.006;2022-09-01T07:45:09;2.47;;;1.63;;
25615;SDS011;13482;48.234;13.006;2022-09-01T07:47:55;2.58;;;2.00;;
25615;SDS011;13482;48.234;13.006;2022-09-01T07:50:32;2.70;;;1.98;;
25615;SDS011;13482;48.234;13.006;2022-09-01T07:53:23;2.72;;;1.92;;
25615;SDS011;13482;48.234;13.006;2022-09-01T07:55:58;2.45;;;1.75;;
25615;SDS011;13482;48.234;13.006;2022-09-01T07:58:38;2.63;;;1.90;;
25615;SDS011;13482;48.234;13.006;2022-09-01T08:01:08;2.53;;;1.90;;
25615;SDS011;13482;48.234;13.006;2022-09-01T08:06:08;5.00;;;1.90;;
25615;SDS011;13482;48.234;13.006;2022-09-01T08:08:38;3.53;;;1.85;;
25615;SDS011;13482;48.234;13.006;2022-09-01T08:11:06;1.85;;;1.45;;
25615;SDS011;13482;48.234;13.006;2022-09-01T08:13:35;2.30;;;1.98;;
25615;SDS011;13482;48.234;13.006;2022-09-01T08:16:07;2.25;;;1.70;;
25615;SDS011;13482;48.234;13.006;2022-09-01T08:18:44;2.10;;;1.50;;
25615;SDS011;13482;48.234;13.006;2022-09-01T08:21:15;1.92;;;1.45;;
25615;SDS011;13482;48.234;13.006;2022-09-01T08:23:44;2.35;;;1.80;;
25615;SDS011;13482;48.234;13.006;2022-09-01T08:26:14;2.38;;;1.85;;
25615;SDS011;13482;48.234;13.006;2022-09-01T08:28:45;2.22;;;1.67;;
25615;SDS011;13482;48.234;13.006;2022-09-01T08:31:21;2.00;;;1.50;;
25615;SDS011;13482;48.234;13.006;2022-09-01T08:33:50;2.53;;;1.50;;
25615;SDS011;13482;48.234;13.006;2022-09-01T08:36:17;2.10;;;1.77;;
25615;SDS011;13482;48.234;13.006;2022-09-01T08:38:50;3.20;;;1.48;;
25615;SDS011;13482;48.234;13.006;2022-09-01T08:44:20;2.88;;;1.52;;
25615;SDS011;13482;48.234;13.006;2022-09-01T08:47:23;2.28;;;1.50;;
25615;SDS011;13482;48.234;13.006;2022-09-01T08:50:09;2.17;;;1.52;;
25615;SDS011;13482;48.234;13.006;2022-09-01T08:52:38;1.65;;;1.27;;
25615;SDS011;13482;48.234;13.006;2022-09-01T08:55:20;1.75;;;1.40;;
25615;SDS011;13482;48.234;13.006;2022-09-01T08:57:58;1.52;;;1.08;;
25615;SDS011;13482;48.234;13.006;2022-09-01T09:00:29;1.83;;;1.20;;
25615;SDS011;13482;48.234;13.006;2022-09-01T09:09:11;1.50;;;1.30;;
25615;SDS011;13482;48.234;13.006;2022-09-01T09:17:44;2.67;;;1.20;;
25615;SDS011;13482;48.234;13.006;2022-09-01T09:20:26;1.33;;;1.05;;
25615;SDS011;13482;48.234;13.006;2022-09-01T09:22:54;1.55;;;1.05;;
25615;SDS011;13482;48.234;13.006;2022-09-01T09:25:25;2.95;;;1.17;;
25615;SDS011;13482;48.234;13.006;2022-09-01T09:27:54;2.20;;;1.35;;
25615;SDS011;13482;48.234;13.006;2022-09-01T09:30:29;1.40;;;0.90;;
25615;SDS011;13482;48.234;13.006;2022-09-01T09:32:58;1.63;;;0.98;;
25615;SDS011;13482;48.234;13.006;2022-09-01T09:35:52;1.50;;;1.10;;
25615;SDS011;13482;48.234;13.006;2022-09-01T09:38:23;1.80;;;1.40;;
25615;SDS011;13482;48.234;13.006;2022-09-01T09:43:47;1.15;;;0.75;;
25615;SDS011;13482;48.234;13.006;2022-09-01T09:46:26;1.02;;;0.70;;
25615;SDS011;13482;48.234;13.006;2022-09-01T09:54:40;1.80;;;1.10;;
25615;SDS011;13482;48.234;13.006;2022-09-01T09:57:25;2.42;;;1.00;;
25615;SDS011;13482;48.234;13.006;2022-09-01T10:00:06;1.30;;;0.85;;
25615;SDS011;13482;48.234;13.006;2022-09-01T10:03:08;2.25;;;1.13;;
25615;SDS011;13482;48.234;13.006;2022-09-01T10:05:40;2.22;;;1.02;;
25615;SDS011;13482;48.234;13.006;2022-09-01T10:08:12;1.70;;;1.00;;
25615;SDS011;13482;48.234;13.006;2022-09-01T10:11:26;2.58;;;1.10;;
25615;SDS011;13482;48.234;13.006;2022-09-01T10:14:09;4.13;;;0.90;;
25615;SDS011;13482;48.234;13.006;2022-09-01T10:17:45;0.75;;;0.63;;
25615;SDS011;13482;48.234;13.006;2022-09-01T10:20:07;1.70;;;0.80;;
25615;SDS011;13482;48.234;13.006;2022-09-01T10:22:49;1.08;;;0.80;;
25615;SDS011;13482;48.234;13.006;2022-09-01T10:25:21;1.38;;;0.80;;
25615;SDS011;13482;48.234;13.006;2022-09-01T10:28:01;1.00;;;0.75;;
25615;SDS011;13482;48.234;13.006;2022-09-01T10:30:38;0.80;;;0.70;;
25615;SDS011;13482;48.234;13.006;2022-09-01T10:33:12;1.75;;;0.90;;
25615;SDS011;13482;48.234;13.006;2022-09-01T10:35:48;1.33;;;0.80;;
25615;SDS011;13482;48.234;13.006;2022-09-01T10:38:21;1.05;;;0.60;;
25615;SDS011;13482;48.234;13.006;2022-09-01T10:40:54;0.80;;;0.60;;
25615;SDS011;13482;48.234;13.006;2022-09-01T10:43:41;0.90;;;0.50;;
25615;SDS011;13482;48.234;13.006;2022-09-01T10:48:52;1.08;;;0.60;;
25615;SDS011;13482;48.234;13.006;2022-09-01T11:06:00;0.82;;;0.60;;
25615;SDS011;13482;48.234;13.006;2022-09-01T11:08:40;1.02;;;0.80;;
25615;SDS011;13482;48.234;13.006;2022-09-01T11:13:49;1.73;;;0.90;;
25615;SDS011;13482;48.234;13.006;2022-09-01T11:30:20;1.10;;;0.70;;
25615;SDS011;13482;48.234;13.006;2022-09-01T11:32:51;1.20;;;0.70;;
25615;SDS011;13482;48.234;13.006;2022-09-01T11:35:37;1.20;;;0.60;;
25615;SDS011;13482;48.234;13.006;2022-09-01T11:38:05;1.45;;;0.70;;
25615;SDS011;13482;48.234;13.006;2022-09-01T11:40:34;0.93;;;0.63;;
25615;SDS011;13482;48.234;13.006;2022-09-01T11:43:03;0.63;;;0.47;;
25615;SDS011;13482;48.234;13.006;2022-09-01T11:46:24;0.70;;;0.50;;
25615;SDS011;13482;48.234;13.006;2022-09-01T11:51:17;0.80;;;0.40;;
25615;SDS011;13482;48.234;13.006;2022-09-01T11:53:46;0.70;;;0.50;;
25615;SDS011;13482;48.234;13.006;2022-09-01T11:56:19;1.70;;;1.02;;
25615;SDS011;13482;48.234;13.006;2022-09-01T11:58:52;0.95;;;0.60;;
25615;SDS011;13482;48.234;13.006;2022-09-01T12:01:20;0.63;;;0.40;;
25615;SDS011;13482;48.234;13.006;2022-09-01T12:04:07;0.60;;;0.40;;
25615;SDS011;13482;48.234;13.006;2022-09-01T12:07:10;1.17;;;0.68;;
25615;SDS011;13482;48.234;13.006;2022-09-01T12:09:51;1.45;;;0.60;;
25615;SDS011;13482;48.234;13.006;2022-09-01T12:15:10;1.25;;;0.70;;
25615;SDS011;13482;48.234;13.006;2022-09-01T12:17:51;1.70;;;0.70;;
25615;SDS011;13482;48.234;13.006;2022-09-01T12:22:55;1.45;;;0.80;;
25615;SDS011;13482;48.234;13.006;2022-09-01T12:25:28;0.85;;;0.60;;
25615;SDS011;13482;48.234;13.006;2022-09-01T12:28:02;1.13;;;0.70;;
25615;SDS011;13482;48.234;13.006;2022-09-01T12:30:31;1.20;;;0.70;;
25615;SDS011;13482;48.234;13.006;2022-09-01T12:33:06;0.80;;;0.50;;
25615;SDS011;13482;48.234;13.006;2022-09-01T12:35:52;1.02;;;0.55;;
25615;SDS011;13482;48.234;13.006;2022-09-01T12:38:50;3.67;;;2.15;;
25615;SDS011;13482;48.234;13.006;2022-09-01T12:41:36;2.08;;;0.68;;
25615;SDS011;13482;48.234;13.006;2022-09-01T12:47:12;1.00;;;0.57;;
25615;SDS011;13482;48.234;13.006;2022-09-01T12:50:00;0.98;;;0.70;;
25615;SDS011;13482;48.234;13.006;2022-09-01T12:53:00;1.33;;;0.70;;
25615;SDS011;13482;48.234;13.006;2022-09-01T12:55:31;0.85;;;0.50;;
25615;SDS011;13482;48.234;13.006;2022-09-01T12:58:20;0.55;;;0.47;;
25615;SDS011;13482;48.234;13.006;2022-09-01T13:01:02;0.93;;;0.70;;
25615;SDS011;13482;48.234;13.006;2022-09-01T13:03:41;1.00;;;0.50;;
25615;SDS011;13482;48.234;13.006;2022-09-01T13:06:39;0.80;;;0.52;;
25615;SDS011;13482;48.234;13.006;2022-09-01T13:09:07;0.90;;;0.50;;
25615;SDS011;13482;48.234;13.006;2022-09-01T13:11:35;1.42;;;0.63;;
25615;SDS011;13482;48.234;13.006;2022-09-01T13:14:23;0.82;;;0.50;;
25615;SDS011;13482;48.234;13.006;2022-09-01T13:16:50;1.23;;;0.60;;
25615;SDS011;13482;48.234;13.006;2022-09-01T13:19:18;0.95;;;0.65;;
25615;SDS011;13482;48.234;13.006;2022-09-01T13:21:54;1.00;;;0.43;;
25615;SDS011;13482;48.234;13.006;2022-09-01T13:24:21;0.90;;;0.60;;
25615;SDS011;13482;48.234;13.006;2022-09-01T13:26:55;1.30;;;0.60;;
25615;SDS011;13482;48.234;13.006;2022-09-01T13:29:42;1.85;;;1.02;;
25615;SDS011;13482;48.234;13.006;2022-09-01T13:32:11;0.73;;;0.40;;
25615;SDS011;13482;48.234;13.006;2022-09-01T13:34:44;2.30;;;1.42;;
25615;SDS011;13482;48.234;13.006;2022-09-01T13:37:16;0.90;;;0.70;;
25615;SDS011;13482;48.234;13.006;2022-09-01T13:39:44;0.93;;;0.50;;
25615;SDS011;13482;48.234;13.006;2022-09-01T13:42:12;1.00;;;0.70;;
25615;SDS011;13482;48.234;13.006;2022-09-01T13:44:41;0.60;;;0.50;;
25615;SDS011;13482;48.234;13.006;2022-09-01T13:47:09;0.90;;;0.60;;
25615;SDS011;13482;48.234;13.006;2022-09-01T13:49:57;1.60;;;0.70;;
25615;SDS011;13482;48.234;13.006;2022-09-01T13:52:37;1.00;;;0.70;;
25615;SDS011;13482;48.234;13.006;2022-09-01T13:55:10;1.23;;;0.50;;
25615;SDS011;13482;48.234;13.006;2022-09-01T13:57:45;0.90;;;0.60;;
25615;SDS011;13482;48.234;13.006;2022-09-01T14:00:15;2.05;;;1.08;;
25615;SDS011;13482;48.234;13.006;2022-09-01T14:02:46;1.50;;;0.77;;
25615;SDS011;13482;48.234;13.006;2022-09-01T14:05:20;1.05;;;0.60;;
25615;SDS011;13482;48.234;13.006;2022-09-01T14:07:50;1.10;;;0.70;;
25615;SDS011;13482;48.234;13.006;2022-09-01T14:10:18;1.77;;;0.88;;
25615;SDS011;13482;48.234;13.006;2022-09-01T14:12:48;1.05;;;0.63;;
25615;SDS011;13482;48.234;13.006;2022-09-01T14:15:16;1.27;;;0.68;;
25615;SDS011;13482;48.234;13.006;2022-09-01T14:17:52;1.13;;;0.70;;
25615;SDS011;13482;48.234;13.006;2022-09-01T14:20:23;1.23;;;0.50;;
25615;SDS011;13482;48.234;13.006;2022-09-01T14:23:02;1.23;;;0.60;;
25615;SDS011;13482;48.234;13.006;2022-09-01T14:25:33;0.97;;;0.60;;
25615;SDS011;13482;48.234;13.006;2022-09-01T14:28:01;1.00;;;0.70;;
25615;SDS011;13482;48.234;13.006;2022-09-01T14:30:29;0.80;;;0.45;;
25615;SDS011;13482;48.234;13.006;2022-09-01T14:32:58;0.90;;;0.60;;
25615;SDS011;13482;48.234;13.006;2022-09-01T14:35:27;1.02;;;0.60;;
25615;SDS011;13482;48.234;13.006;2022-09-01T14:37:58;1.58;;;0.70;;
25615;SDS011;13482;48.234;13.006;2022-09-01T14:40:27;0.98;;;0.60;;
25615;SDS011;13482;48.234;13.006;2022-09-01T14:42:55;1.25;;;0.85;;
25615;SDS011;13482;48.234;13.006;2022-09-01T14:45:23;1.27;;;0.70;;
25615;SDS011;13482;48.234;13.006;2022-09-01T14:47:56;0.90;;;0.60;;
25615;SDS011;13482;48.234;13.006;2022-09-01T14:50:26;1.05;;;0.60;;
25615;SDS011;13482;48.234;13.006;2022-09-01T14:52:58;0.68;;;0.50;;
25615;SDS011;13482;48.234;13.006;2022-09-01T14:55:28;1.10;;;0.50;;
25615;SDS011;13482;48.234;13.006;2022-09-01T14:57:57;1.60;;;0.57;;
25615;SDS011;13482;48.234;13.006;2022-09-01T15:00:25;1.75;;;0.52;;
25615;SDS011;13482;48.234;13.006;2022-09-01T15:02:55;0.85;;;0.45;;
25615;SDS011;13482;48.234;13.006;2022-09-01T15:05:23;0.73;;;0.50;;
25615;SDS011;13482;48.234;13.006;2022-09-01T15:07:51;1.42;;;0.60;;
25615;SDS011;13482;48.234;13.006;2022-09-01T15:10:20;1.00;;;0.50;;
25615;SDS011;13482;48.234;13.006;2022-09-01T15:12:52;1.30;;;0.55;;
25615;SDS011;13482;48.234;13.006;2022-09-01T15:15:23;0.98;;;0.65;;
25615;SDS011;13482;48.234;13.006;2022-09-01T15:17:52;1.38;;;0.50;;
25615;SDS011;13482;48.234;13.006;2022-09-01T15:20:21;1.08;;;0.50;;
25615;SDS011;13482;48.234;13.006;2022-09-01T15:23:07;2.95;;;0.50;;
25615;SDS011;13482;48.234;13.006;2022-09-01T15:25:35;1.33;;;0.70;;
25615;SDS011;13482;48.234;13.006;2022-09-01T15:28:03;0.77;;;0.50;;
25615;SDS011;13482;48.234;13.006;2022-09-01T15:30:31;1.23;;;0.52;;
25615;SDS011;13482;48.234;13.006;2022-09-01T15:33:00;1.00;;;0.60;;
25615;SDS011;13482;48.234;13.006;2022-09-01T15:35:28;1.13;;;0.63;;
25615;SDS011;13482;48.234;13.006;2022-09-01T15:37:57;1.02;;;0.60;;
25615;SDS011;13482;48.234;13.006;2022-09-01T15:40:24;1.52;;;0.70;;
25615;SDS011;13482;48.234;13.006;2022-09-01T15:42:54;0.85;;;0.50;;
25615;SDS011;13482;48.234;13.006;2022-09-01T15:45:23;1.08;;;0.50;;
25615;SDS011;13482;48.234;13.006;2022-09-01T15:47:52;1.00;;;0.60;;
25615;SDS011;13482;48.234;13.006;2022-09-01T15:50:21;1.10;;;0.55;;
25615;SDS011;13482;48.234;13.006;2022-09-01T15:52:55;1.50;;;0.50;;
25615;SDS011;13482;48.234;13.006;2022-09-01T15:57:57;2.05;;;0.43;;
25615;SDS011;13482;48.234;13.006;2022-09-01T16:00:25;0.90;;;0.50;;
25615;SDS011;13482;48.234;13.006;2022-09-01T16:02:54;1.20;;;0.60;;
25615;SDS011;13482;48.234;13.006;2022-09-01T16:05:23;0.77;;;0.52;;
25615;SDS011;13482;48.234;13.006;2022-09-01T16:07:51;0.98;;;0.50;;
25615;SDS011;13482;48.234;13.006;2022-09-01T16:10:24;0.80;;;0.50;;
25615;SDS011;13482;48.234;13.006;2022-09-01T16:12:51;1.02;;;0.57;;
25615;SDS011;13482;48.234;13.006;2022-09-01T16:15:20;1.23;;;0.52;;
25615;SDS011;13482;48.234;13.006;2022-09-01T16:20:35;0.73;;;0.45;;
25615;SDS011;13482;48.234;13.006;2022-09-01T16:23:49;1.27;;;0.63;;
25615;SDS011;13482;48.234;13.006;2022-09-01T16:26:18;0.85;;;0.55;;
25615;SDS011;13482;48.234;13.006;2022-09-01T16:28:51;1.88;;;0.50;;
25615;SDS011;13482;48.234;13.006;2022-09-01T16:31:24;3.85;;;0.75;;
25615;SDS011;13482;48.234;13.006;2022-09-01T16:33:56;0.70;;;0.50;;
25615;SDS011;13482;48.234;13.006;2022-09-01T16:39:42;1.30;;;0.60;;
25615;SDS011;13482;48.234;13.006;2022-09-01T16:56:52;2.55;;;1.00;;